createdAt,value
2018-03-14T00:00:02.738Z,4.53
2018-03-14T00:00:06.919Z,4.52
2018-03-14T00:00:10.986Z,4.52
2018-03-14T00:00:15.160Z,4.53
2018-03-14T00:00:20.926Z,4.53
2018-03-14T00:00:26.789Z,4.52
2018-03-14T00:00:30.864Z,4.53
2018-03-14T00:00:35.063Z,4.52
2018-03-14T00:00:39.530Z,4.52
2018-03-14T00:00:43.565Z,4.52
2018-03-14T00:00:47.850Z,4.53
2018-03-14T00:00:51.672Z,4.53
2018-03-14T00:00:55.993Z,4.52
2018-03-14T00:01:00.163Z,4.52
2018-03-14T00:01:04.237Z,4.52
2018-03-14T00:01:08.430Z,4.53
2018-03-14T00:01:12.702Z,4.52
2018-03-14T00:01:16.753Z,4.52
2018-03-14T00:01:21.078Z,4.53
2018-03-14T00:01:25.162Z,4.52
2018-03-14T00:01:30.517Z,4.52
2018-03-14T00:01:35.432Z,4.53
2018-03-14T00:01:39.601Z,4.52
2018-03-14T00:01:43.769Z,4.52
2018-03-14T00:01:47.955Z,4.53
2018-03-14T00:01:52.115Z,4.53
2018-03-14T00:01:56.407Z,4.52
2018-03-14T00:02:00.582Z,4.52
2018-03-14T00:02:04.768Z,4.53
2018-03-14T00:02:09.101Z,4.52
2018-03-14T00:02:13.417Z,4.52
2018-03-14T00:02:17.738Z,4.52
2018-03-14T00:02:21.668Z,4.53
2018-03-14T00:02:25.720Z,4.53
2018-03-14T00:02:29.773Z,4.53
2018-03-14T00:02:33.919Z,4.53
2018-03-14T00:02:39.888Z,4.53
2018-03-14T00:02:44.603Z,4.52
2018-03-14T00:02:48.912Z,4.54
2018-03-14T00:02:53.225Z,4.53
2018-03-14T00:02:57.168Z,4.53
2018-03-14T00:03:01.231Z,4.53
2018-03-14T00:03:05.414Z,4.53
2018-03-14T00:03:09.486Z,4.53
2018-03-14T00:03:13.542Z,4.54
2018-03-14T00:03:17.739Z,4.53
2018-03-14T00:03:22.066Z,4.54
2018-03-14T00:03:26.283Z,4.54
2018-03-14T00:03:30.466Z,4.54
2018-03-14T00:03:34.395Z,4.54
2018-03-14T00:03:38.571Z,4.53
2018-03-14T00:03:42.608Z,4.54
2018-03-14T00:03:50.311Z,4.54
2018-03-14T00:03:55.116Z,4.53
2018-03-14T00:03:59.430Z,4.54
2018-03-14T00:04:03.651Z,4.53
2018-03-14T00:04:07.818Z,4.54
2018-03-14T00:04:12.165Z,4.54
2018-03-14T00:04:16.479Z,4.54
2018-03-14T00:04:20.539Z,4.55
2018-03-14T00:04:24.772Z,4.56
2018-03-14T00:04:28.818Z,4.54
2018-03-14T00:04:33.253Z,4.55
2018-03-14T00:04:38.151Z,4.55
2018-03-14T00:04:42.585Z,4.55
2018-03-14T00:04:46.740Z,4.55
2018-03-14T00:04:50.914Z,4.55
2018-03-14T00:04:57.250Z,4.55
2018-03-14T00:05:03.024Z,4.56
2018-03-14T00:05:06.819Z,4.55
2018-03-14T00:05:11.013Z,4.55
2018-03-14T00:05:15.459Z,4.56
2018-03-14T00:05:19.273Z,4.56
2018-03-14T00:05:23.332Z,4.56
2018-03-14T00:05:27.386Z,4.57
2018-03-14T00:05:31.449Z,4.56
2018-03-14T00:05:35.767Z,4.56
2018-03-14T00:05:39.928Z,4.56
2018-03-14T00:05:44.124Z,4.57
2018-03-14T00:05:48.582Z,4.56
2018-03-14T00:05:52.787Z,4.57
2018-03-14T00:05:56.985Z,4.57
2018-03-14T00:06:01.746Z,4.56
2018-03-14T00:06:09.208Z,4.57
2018-03-14T00:06:13.514Z,4.57
2018-03-14T00:06:17.572Z,4.56
2018-03-14T00:06:21.503Z,4.56
2018-03-14T00:06:25.806Z,4.57
2018-03-14T00:06:29.865Z,4.57
2018-03-14T00:06:33.910Z,4.57
2018-03-14T00:06:38.203Z,4.57
2018-03-14T00:06:42.509Z,4.58
2018-03-14T00:06:46.805Z,4.57
2018-03-14T00:06:50.608Z,4.57
2018-03-14T00:06:54.833Z,4.57
2018-03-14T00:06:59.005Z,4.58
2018-03-14T00:07:03.052Z,4.58
2018-03-14T00:07:07.266Z,4.58
2018-03-14T00:07:13.219Z,4.58
2018-03-14T00:07:19.240Z,4.58
2018-03-14T00:07:23.410Z,4.59
2018-03-14T00:07:27.708Z,4.59
2018-03-14T00:07:31.922Z,4.59
2018-03-14T00:07:36.159Z,4.6
2018-03-14T00:07:40.232Z,4.59
2018-03-14T00:07:44.391Z,4.6
2018-03-14T00:07:48.595Z,4.6
2018-03-14T00:07:52.696Z,4.61
2018-03-14T00:07:56.869Z,4.61
2018-03-14T00:08:01.182Z,4.61
2018-03-14T00:08:05.144Z,4.61
2018-03-14T00:08:09.573Z,4.62
2018-03-14T00:08:13.804Z,4.6
2018-03-14T00:08:18.008Z,4.61
2018-03-14T00:08:25.333Z,4.6
2018-03-14T00:08:30.070Z,4.62
2018-03-14T00:08:34.349Z,4.61
2018-03-14T00:08:38.163Z,4.62
2018-03-14T00:08:42.509Z,4.62
2018-03-14T00:08:46.825Z,4.62
2018-03-14T00:08:51.011Z,4.62
2018-03-14T00:08:55.190Z,4.62
2018-03-14T00:08:59.490Z,4.63
2018-03-14T00:09:03.664Z,4.62
2018-03-14T00:09:07.836Z,4.63
2018-03-14T00:09:12.160Z,4.62
2018-03-14T00:09:16.468Z,4.63
2018-03-14T00:09:20.532Z,4.63
2018-03-14T00:09:24.689Z,4.64
2018-03-14T00:09:29.278Z,4.64
2018-03-14T00:09:36.313Z,4.64
2018-03-14T00:09:40.631Z,4.64
2018-03-14T00:09:44.478Z,4.65
2018-03-14T00:09:48.789Z,4.65
2018-03-14T00:09:52.850Z,4.64
2018-03-14T00:09:57.317Z,4.64
2018-03-14T00:10:01.252Z,4.65
2018-03-14T00:10:05.460Z,4.64
2018-03-14T00:10:09.776Z,4.66
2018-03-14T00:10:14.095Z,4.66
2018-03-14T00:10:18.131Z,4.65
2018-03-14T00:10:22.437Z,4.66
2018-03-14T00:10:26.472Z,4.66
2018-03-14T00:10:30.818Z,4.66
2018-03-14T00:10:35.112Z,4.67
2018-03-14T00:10:42.351Z,4.67
2018-03-14T00:10:47.249Z,4.68
2018-03-14T00:10:51.422Z,4.69
2018-03-14T00:10:55.723Z,4.68
2018-03-14T00:10:59.897Z,4.69
2018-03-14T00:11:03.816Z,4.69
2018-03-14T00:11:07.891Z,4.69
2018-03-14T00:11:11.962Z,4.7
2018-03-14T00:11:16.019Z,4.69
2018-03-14T00:11:20.061Z,4.7
2018-03-14T00:11:24.118Z,4.7
2018-03-14T00:11:28.438Z,4.71
2018-03-14T00:11:32.467Z,4.71
2018-03-14T00:11:36.742Z,4.71
2018-03-14T00:11:41.056Z,4.72
2018-03-14T00:11:45.147Z,4.71
2018-03-14T00:11:51.037Z,4.72
2018-03-14T00:11:55.133Z,4.71
2018-03-14T00:11:59.598Z,4.72
2018-03-14T00:12:03.774Z,4.73
2018-03-14T00:12:07.836Z,4.72
2018-03-14T00:12:11.769Z,4.73
2018-03-14T00:12:16.106Z,4.73
2018-03-14T00:12:20.358Z,4.72
2018-03-14T00:12:24.414Z,4.73
2018-03-14T00:12:28.499Z,4.72
2018-03-14T00:12:32.932Z,4.73
2018-03-14T00:12:37.103Z,4.73
2018-03-14T00:12:41.534Z,4.74
2018-03-14T00:12:45.711Z,4.74
2018-03-14T00:12:50.045Z,4.74
2018-03-14T00:12:53.979Z,4.74
2018-03-14T00:13:00.205Z,4.74
2018-03-14T00:13:04.724Z,4.75
2018-03-14T00:13:09.024Z,4.75
2018-03-14T00:13:13.530Z,4.74
2018-03-14T00:13:17.967Z,4.75
2018-03-14T00:13:21.893Z,4.75
2018-03-14T00:13:26.323Z,4.75
2018-03-14T00:13:30.502Z,4.76
2018-03-14T00:13:34.816Z,4.76
2018-03-14T00:13:38.993Z,4.76
2018-03-14T00:13:43.303Z,4.76
2018-03-14T00:13:47.607Z,4.77
2018-03-14T00:13:51.658Z,4.76
2018-03-14T00:13:55.704Z,4.76
2018-03-14T00:14:00.170Z,4.77
2018-03-14T00:14:05.138Z,4.77
2018-03-14T00:14:11.454Z,4.77
2018-03-14T00:14:15.627Z,4.77
2018-03-14T00:14:19.806Z,4.78
2018-03-14T00:14:24.079Z,4.78
2018-03-14T00:14:28.022Z,4.78
2018-03-14T00:14:32.087Z,4.79
2018-03-14T00:14:36.263Z,4.78
2018-03-14T00:14:40.573Z,4.78
2018-03-14T00:14:44.622Z,4.78
2018-03-14T00:14:48.947Z,4.78
2018-03-14T00:14:53.006Z,4.78
2018-03-14T00:14:57.193Z,4.78
2018-03-14T00:15:00.991Z,4.79
2018-03-14T00:15:05.061Z,4.78
2018-03-14T00:15:09.258Z,4.78
2018-03-14T00:15:15.230Z,4.78
2018-03-14T00:15:20.777Z,4.79
2018-03-14T00:15:24.755Z,4.79
2018-03-14T00:15:29.070Z,4.78
2018-03-14T00:15:33.240Z,4.79
2018-03-14T00:15:37.403Z,4.79
2018-03-14T00:15:41.591Z,4.8
2018-03-14T00:15:45.764Z,4.79
2018-03-14T00:15:50.081Z,4.79
2018-03-14T00:15:54.242Z,4.79
2018-03-14T00:15:58.400Z,4.79
2018-03-14T00:16:02.648Z,4.79
2018-03-14T00:16:06.693Z,4.8
2018-03-14T00:16:10.634Z,4.8
2018-03-14T00:16:14.869Z,4.79
2018-03-14T00:16:19.051Z,4.79
2018-03-14T00:16:25.706Z,4.79
2018-03-14T00:16:30.462Z,4.79
2018-03-14T00:16:34.660Z,4.8
2018-03-14T00:16:38.978Z,4.8
2018-03-14T00:16:43.011Z,4.8
2018-03-14T00:16:47.234Z,4.79
2018-03-14T00:16:51.280Z,4.81
2018-03-14T00:16:55.455Z,4.8
2018-03-14T00:16:59.658Z,4.8
2018-03-14T00:17:04.121Z,4.79
2018-03-14T00:17:08.184Z,4.8
2018-03-14T00:17:12.385Z,4.8
2018-03-14T00:17:16.595Z,4.8
2018-03-14T00:17:20.392Z,4.8
2018-03-14T00:17:24.437Z,4.8
2018-03-14T00:17:28.501Z,4.81
2018-03-14T00:17:34.786Z,4.82
2018-03-14T00:17:39.718Z,4.81
2018-03-14T00:17:43.999Z,4.8
2018-03-14T00:17:47.918Z,4.8
2018-03-14T00:17:52.081Z,4.81
2018-03-14T00:17:56.116Z,4.82
2018-03-14T00:18:00.046Z,4.82
2018-03-14T00:18:04.105Z,4.81
2018-03-14T00:18:07.789Z,4.82
2018-03-14T00:18:12.226Z,4.82
2018-03-14T00:18:16.261Z,4.82
2018-03-14T00:18:20.620Z,4.83
2018-03-14T00:18:24.917Z,4.83
2018-03-14T00:18:29.215Z,4.84
2018-03-14T00:18:33.276Z,4.84
2018-03-14T00:18:37.477Z,4.83
2018-03-14T00:18:45.599Z,4.85
2018-03-14T00:18:49.920Z,4.85
2018-03-14T00:18:54.234Z,4.85
2018-03-14T00:18:58.286Z,4.85
2018-03-14T00:19:02.613Z,4.86
2018-03-14T00:19:07.012Z,4.85
2018-03-14T00:19:10.990Z,4.85
2018-03-14T00:19:15.287Z,4.85
2018-03-14T00:19:19.953Z,4.86
2018-03-14T00:19:24.919Z,4.85
2018-03-14T00:19:28.901Z,4.85
2018-03-14T00:19:33.082Z,4.85
2018-03-14T00:19:37.130Z,4.85
2018-03-14T00:19:41.445Z,4.86
2018-03-14T00:19:45.734Z,4.87
2018-03-14T00:19:50.175Z,4.86
2018-03-14T00:19:56.151Z,4.86
2018-03-14T00:20:00.331Z,4.86
2018-03-14T00:20:04.398Z,4.87
2018-03-14T00:20:08.575Z,4.86
2018-03-14T00:20:12.627Z,4.86
2018-03-14T00:20:16.811Z,4.86
2018-03-14T00:20:20.871Z,4.87
2018-03-14T00:20:25.150Z,4.86
2018-03-14T00:20:29.557Z,4.86
2018-03-14T00:20:33.876Z,4.86
2018-03-14T00:20:38.042Z,4.86
2018-03-14T00:20:42.270Z,4.86
2018-03-14T00:20:46.437Z,4.86
2018-03-14T00:20:50.747Z,4.86
2018-03-14T00:20:54.671Z,4.86
2018-03-14T00:21:01.973Z,4.86
2018-03-14T00:21:06.292Z,4.86
2018-03-14T00:21:10.460Z,4.86
2018-03-14T00:21:14.749Z,4.86
2018-03-14T00:21:19.215Z,4.86
2018-03-14T00:21:23.277Z,4.86
2018-03-14T00:21:27.588Z,4.86
2018-03-14T00:21:31.769Z,4.86
2018-03-14T00:21:35.863Z,4.85
2018-03-14T00:21:39.793Z,4.86
2018-03-14T00:21:43.984Z,4.86
2018-03-14T00:21:48.057Z,4.85
2018-03-14T00:21:52.238Z,4.85
2018-03-14T00:21:56.319Z,4.85
2018-03-14T00:22:00.618Z,4.86
2018-03-14T00:22:04.572Z,4.84
2018-03-14T00:22:12.314Z,4.85
2018-03-14T00:22:16.618Z,4.86
2018-03-14T00:22:21.042Z,4.85
2018-03-14T00:22:25.117Z,4.85
2018-03-14T00:22:29.307Z,4.84
2018-03-14T00:22:33.734Z,4.85
2018-03-14T00:22:37.899Z,4.85
2018-03-14T00:22:42.208Z,4.84
2018-03-14T00:22:46.506Z,4.85
2018-03-14T00:22:50.819Z,4.85
2018-03-14T00:22:55.002Z,4.85
2018-03-14T00:22:59.334Z,4.85
2018-03-14T00:23:03.560Z,4.83
2018-03-14T00:23:07.632Z,4.85
2018-03-14T00:23:11.572Z,4.84
2018-03-14T00:23:17.660Z,4.85
2018-03-14T00:23:23.460Z,4.84
2018-03-14T00:23:27.775Z,4.84
2018-03-14T00:23:31.973Z,4.85
2018-03-14T00:23:36.414Z,4.84
2018-03-14T00:23:40.341Z,4.84
2018-03-14T00:23:44.381Z,4.84
2018-03-14T00:23:48.805Z,4.84
2018-03-14T00:23:53.132Z,4.85
2018-03-14T00:23:57.190Z,4.85
2018-03-14T00:24:01.374Z,4.84
2018-03-14T00:24:05.398Z,4.84
2018-03-14T00:24:09.694Z,4.84
2018-03-14T00:24:14.001Z,4.85
2018-03-14T00:24:18.047Z,4.84
2018-03-14T00:24:22.347Z,4.84
2018-03-14T00:24:29.134Z,4.84
2018-03-14T00:24:33.423Z,4.84
2018-03-14T00:24:37.736Z,4.83
2018-03-14T00:24:42.069Z,4.84
2018-03-14T00:24:46.356Z,4.84
2018-03-14T00:24:50.524Z,4.83
2018-03-14T00:24:54.690Z,4.84
2018-03-14T00:24:58.757Z,4.84
2018-03-14T00:25:02.988Z,4.84
2018-03-14T00:25:07.184Z,4.84
2018-03-14T00:25:11.406Z,4.83
2018-03-14T00:25:15.581Z,4.83
2018-03-14T00:25:19.777Z,4.84
2018-03-14T00:25:24.160Z,4.83
2018-03-14T00:25:28.351Z,4.83
2018-03-14T00:25:35.997Z,4.83
2018-03-14T00:25:40.214Z,4.84
2018-03-14T00:25:44.602Z,4.83
2018-03-14T00:25:48.674Z,4.83
2018-03-14T00:25:53.138Z,4.84
2018-03-14T00:25:57.324Z,4.84
2018-03-14T00:26:01.822Z,4.84
2018-03-14T00:26:05.765Z,4.85
2018-03-14T00:26:09.831Z,4.84
2018-03-14T00:26:13.755Z,4.84
2018-03-14T00:26:17.930Z,4.84
2018-03-14T00:26:22.131Z,4.84
2018-03-14T00:26:26.554Z,4.83
2018-03-14T00:26:30.964Z,4.84
2018-03-14T00:26:35.256Z,4.85
2018-03-14T00:26:39.298Z,4.84
2018-03-14T00:26:46.581Z,4.85
2018-03-14T00:26:50.623Z,4.85
2018-03-14T00:26:54.942Z,4.85
2018-03-14T00:26:59.253Z,4.85
2018-03-14T00:27:03.362Z,4.85
2018-03-14T00:27:07.665Z,4.85
2018-03-14T00:27:11.965Z,4.86
2018-03-14T00:27:16.393Z,4.85
2018-03-14T00:27:20.690Z,4.85
2018-03-14T00:27:24.757Z,4.86
2018-03-14T00:27:28.967Z,4.85
2018-03-14T00:27:33.029Z,4.86
2018-03-14T00:27:37.095Z,4.86
2018-03-14T00:27:41.440Z,4.86
2018-03-14T00:27:45.869Z,4.86
2018-03-14T00:27:51.788Z,4.85
2018-03-14T00:27:57.571Z,4.86
2018-03-14T00:28:01.636Z,4.86
2018-03-14T00:28:05.738Z,4.86
2018-03-14T00:28:10.132Z,4.86
2018-03-14T00:28:14.182Z,4.86
2018-03-14T00:28:18.617Z,4.86
2018-03-14T00:28:22.804Z,4.85
2018-03-14T00:28:26.982Z,4.86
2018-03-14T00:28:31.427Z,4.85
2018-03-14T00:28:35.857Z,4.86
2018-03-14T00:28:40.042Z,4.86
2018-03-14T00:28:44.103Z,4.85
2018-03-14T00:28:48.314Z,4.85
2018-03-14T00:28:52.749Z,4.85
2018-03-14T00:28:57.098Z,4.85
2018-03-14T00:29:04.488Z,4.86
2018-03-14T00:29:08.671Z,4.85
2018-03-14T00:29:12.939Z,4.85
2018-03-14T00:29:17.643Z,4.86
2018-03-14T00:29:21.962Z,4.86
2018-03-14T00:29:26.311Z,4.84
2018-03-14T00:29:30.235Z,4.86
2018-03-14T00:29:34.159Z,4.86
2018-03-14T00:29:38.336Z,4.86
2018-03-14T00:29:42.393Z,4.86
2018-03-14T00:29:46.709Z,4.86
2018-03-14T00:29:50.763Z,4.86
2018-03-14T00:29:54.833Z,4.85
2018-03-14T00:29:59.130Z,4.85
2018-03-14T00:30:03.871Z,4.86
2018-03-14T00:30:11.084Z,4.85
2018-03-14T00:30:15.542Z,4.85
2018-03-14T00:30:19.706Z,4.85
2018-03-14T00:30:23.908Z,4.84
2018-03-14T00:30:28.326Z,4.85
2018-03-14T00:30:32.614Z,4.85
2018-03-14T00:30:36.778Z,4.84
2018-03-14T00:30:40.978Z,4.84
2018-03-14T00:30:45.141Z,4.85
2018-03-14T00:30:48.964Z,4.84
2018-03-14T00:30:53.012Z,4.84
2018-03-14T00:30:56.812Z,4.85
2018-03-14T00:31:00.858Z,4.84
2018-03-14T00:31:05.056Z,4.85
2018-03-14T00:31:09.365Z,4.85
2018-03-14T00:31:13.772Z,4.85
2018-03-14T00:31:20.286Z,4.85
2018-03-14T00:31:25.013Z,4.84
2018-03-14T00:31:28.961Z,4.85
2018-03-14T00:31:32.888Z,4.84
2018-03-14T00:31:37.088Z,4.84
2018-03-14T00:31:41.516Z,4.85
2018-03-14T00:31:45.694Z,4.85
2018-03-14T00:31:50.017Z,4.86
2018-03-14T00:31:54.178Z,4.85
2018-03-14T00:31:58.503Z,4.84
2018-03-14T00:32:02.562Z,4.85
2018-03-14T00:32:06.857Z,4.84
2018-03-14T00:32:10.806Z,4.84
2018-03-14T00:32:15.127Z,4.85
2018-03-14T00:32:19.451Z,4.85
2018-03-14T00:32:24.355Z,4.85
2018-03-14T00:32:30.216Z,4.84
2018-03-14T00:32:34.555Z,4.85
2018-03-14T00:32:38.833Z,4.85
2018-03-14T00:32:43.131Z,4.84
2018-03-14T00:32:47.326Z,4.84
2018-03-14T00:32:51.392Z,4.84
2018-03-14T00:32:55.691Z,4.84
2018-03-14T00:33:00.105Z,4.84
2018-03-14T00:33:04.274Z,4.84
2018-03-14T00:33:08.450Z,4.85
2018-03-14T00:33:12.757Z,4.84
2018-03-14T00:33:17.035Z,4.86
2018-03-14T00:33:21.111Z,4.85
2018-03-14T00:33:25.161Z,4.85
2018-03-14T00:33:29.452Z,4.84
2018-03-14T00:33:35.520Z,4.85
2018-03-14T00:33:40.360Z,4.84
2018-03-14T00:33:44.399Z,4.84
2018-03-14T00:33:48.572Z,4.85
2018-03-14T00:33:52.929Z,4.84
2018-03-14T00:33:56.994Z,4.85
2018-03-14T00:34:01.035Z,4.85
2018-03-14T00:34:05.269Z,4.85
2018-03-14T00:34:09.578Z,4.86
2018-03-14T00:34:13.649Z,4.86
2018-03-14T00:34:17.975Z,4.85
2018-03-14T00:34:22.280Z,4.85
2018-03-14T00:34:26.382Z,4.86
2018-03-14T00:34:30.320Z,4.86
2018-03-14T00:34:34.491Z,4.86
2018-03-14T00:34:38.803Z,4.86
2018-03-14T00:34:45.690Z,4.86
2018-03-14T00:34:50.850Z,4.86
2018-03-14T00:34:55.138Z,4.86
2018-03-14T00:34:59.185Z,4.85
2018-03-14T00:35:03.499Z,4.86
2018-03-14T00:35:07.594Z,4.87
2018-03-14T00:35:12.025Z,4.87
2018-03-14T00:35:16.353Z,4.86
2018-03-14T00:35:20.390Z,4.87
2018-03-14T00:35:24.541Z,4.87
2018-03-14T00:35:28.850Z,4.87
2018-03-14T00:35:33.032Z,4.87
2018-03-14T00:35:37.329Z,4.87
2018-03-14T00:35:41.769Z,4.87
2018-03-14T00:35:45.824Z,4.88
2018-03-14T00:35:49.746Z,4.87
2018-03-14T00:35:55.917Z,4.89
2018-03-14T00:36:00.472Z,4.88
2018-03-14T00:36:04.419Z,4.89
2018-03-14T00:36:08.598Z,4.88
2018-03-14T00:36:12.978Z,4.88
2018-03-14T00:36:17.168Z,4.88
2018-03-14T00:36:21.135Z,4.89
2018-03-14T00:36:25.339Z,4.88
2018-03-14T00:36:29.518Z,4.88
2018-03-14T00:36:33.810Z,4.89
2018-03-14T00:36:38.234Z,4.89
2018-03-14T00:36:42.507Z,4.89
2018-03-14T00:36:46.705Z,4.9
2018-03-14T00:36:50.919Z,4.89
2018-03-14T00:36:55.099Z,4.9
2018-03-14T00:37:00.386Z,4.9
2018-03-14T00:37:06.115Z,4.9
2018-03-14T00:37:10.164Z,4.9
2018-03-14T00:37:14.217Z,4.91
2018-03-14T00:37:18.512Z,4.9
2018-03-14T00:37:22.718Z,4.9
2018-03-14T00:37:27.035Z,4.89
2018-03-14T00:37:31.343Z,4.9
2018-03-14T00:37:35.538Z,4.9
2018-03-14T00:37:39.835Z,4.91
2018-03-14T00:37:44.025Z,4.9
2018-03-14T00:37:48.197Z,4.91
2018-03-14T00:37:52.625Z,4.89
2018-03-14T00:37:57.064Z,4.91
2018-03-14T00:38:01.239Z,4.91
2018-03-14T00:38:05.454Z,4.9
2018-03-14T00:38:11.892Z,4.91
2018-03-14T00:38:16.492Z,4.92
2018-03-14T00:38:20.835Z,4.91
2018-03-14T00:38:25.160Z,4.91
2018-03-14T00:38:29.590Z,4.92
2018-03-14T00:38:33.539Z,4.91
2018-03-14T00:38:37.718Z,4.91
2018-03-14T00:38:41.844Z,4.92
2018-03-14T00:38:45.911Z,4.91
2018-03-14T00:38:50.117Z,4.91
2018-03-14T00:38:54.176Z,4.92
2018-03-14T00:38:58.639Z,4.91
2018-03-14T00:39:03.269Z,4.91
2018-03-14T00:39:07.452Z,4.92
2018-03-14T00:39:11.782Z,4.92
2018-03-14T00:39:17.202Z,4.91
2018-03-14T00:39:23.966Z,4.91
2018-03-14T00:39:27.950Z,4.91
2018-03-14T00:39:32.156Z,4.92
2018-03-14T00:39:36.453Z,4.91
2018-03-14T00:39:40.630Z,4.92
2018-03-14T00:39:44.928Z,4.93
2018-03-14T00:39:49.143Z,4.92
2018-03-14T00:39:53.210Z,4.91
2018-03-14T00:39:57.261Z,4.92
2018-03-14T00:40:01.566Z,4.92
2018-03-14T00:40:05.647Z,4.92
2018-03-14T00:40:09.809Z,4.92
2018-03-14T00:40:13.864Z,4.92
2018-03-14T00:40:18.179Z,4.92
2018-03-14T00:40:22.352Z,4.92
2018-03-14T00:40:29.343Z,4.93
2018-03-14T00:40:34.039Z,4.93
2018-03-14T00:40:38.313Z,4.93
2018-03-14T00:40:42.397Z,4.92
2018-03-14T00:40:46.595Z,4.92
2018-03-14T00:40:50.913Z,4.92
2018-03-14T00:40:55.082Z,4.93
2018-03-14T00:40:59.525Z,4.92
2018-03-14T00:41:03.670Z,4.93
2018-03-14T00:41:07.991Z,4.93
2018-03-14T00:41:12.296Z,4.93
2018-03-14T00:41:16.476Z,4.93
2018-03-14T00:41:20.777Z,4.93
2018-03-14T00:41:25.185Z,4.93
2018-03-14T00:41:29.120Z,4.93
2018-03-14T00:41:34.106Z,4.93
2018-03-14T00:41:40.592Z,4.93
2018-03-14T00:41:44.776Z,4.93
2018-03-14T00:41:48.962Z,4.93
2018-03-14T00:41:53.138Z,4.93
2018-03-14T00:41:57.340Z,4.93
2018-03-14T00:42:01.836Z,4.93
2018-03-14T00:42:06.033Z,4.93
2018-03-14T00:42:10.235Z,4.94
2018-03-14T00:42:14.673Z,4.94
2018-03-14T00:42:19.013Z,4.94
2018-03-14T00:42:22.960Z,4.94
2018-03-14T00:42:27.245Z,4.95
2018-03-14T00:42:31.583Z,4.94
2018-03-14T00:42:35.752Z,4.94
2018-03-14T00:42:39.939Z,4.94
2018-03-14T00:42:46.586Z,4.94
2018-03-14T00:42:51.270Z,4.94
2018-03-14T00:42:55.700Z,4.94
2018-03-14T00:43:00.003Z,4.94
2018-03-14T00:43:04.446Z,4.94
2018-03-14T00:43:08.374Z,4.94
2018-03-14T00:43:12.771Z,4.94
2018-03-14T00:43:16.946Z,4.94
2018-03-14T00:43:21.222Z,4.94
2018-03-14T00:43:25.522Z,4.94
2018-03-14T00:43:29.842Z,4.94
2018-03-14T00:43:33.899Z,4.94
2018-03-14T00:43:38.205Z,4.94
2018-03-14T00:43:42.400Z,4.93
2018-03-14T00:43:46.841Z,4.93
2018-03-14T00:43:50.770Z,4.94
2018-03-14T00:43:58.629Z,4.93
2018-03-14T00:44:02.859Z,4.93
2018-03-14T00:44:07.038Z,4.92
2018-03-14T00:44:10.952Z,4.92
2018-03-14T00:44:15.262Z,4.93
2018-03-14T00:44:19.329Z,4.92
2018-03-14T00:44:23.376Z,4.92
2018-03-14T00:44:27.433Z,4.93
2018-03-14T00:44:31.603Z,4.92
2018-03-14T00:44:35.927Z,4.93
2018-03-14T00:44:40.118Z,4.91
2018-03-14T00:44:44.450Z,4.92
2018-03-14T00:44:48.756Z,4.92
2018-03-14T00:44:52.984Z,4.92
2018-03-14T00:44:57.051Z,4.91
2018-03-14T00:45:04.111Z,4.91
2018-03-14T00:45:09.245Z,4.91
2018-03-14T00:45:13.285Z,4.9
2018-03-14T00:45:17.463Z,4.92
2018-03-14T00:45:21.670Z,4.91
2018-03-14T00:45:25.704Z,4.9
2018-03-14T00:45:29.890Z,4.91
2018-03-14T00:45:34.087Z,4.91
2018-03-14T00:45:38.382Z,4.91
2018-03-14T00:45:42.455Z,4.91
2018-03-14T00:45:46.781Z,4.91
2018-03-14T00:45:50.987Z,4.91
2018-03-14T00:45:55.427Z,4.91
2018-03-14T00:45:59.597Z,4.91
2018-03-14T00:46:03.531Z,4.91
2018-03-14T00:46:07.460Z,4.92
2018-03-14T00:46:15.514Z,4.91
2018-03-14T00:46:19.611Z,4.91
2018-03-14T00:46:23.792Z,4.91
2018-03-14T00:46:27.845Z,4.9
2018-03-14T00:46:32.006Z,4.91
2018-03-14T00:46:36.231Z,4.9
2018-03-14T00:46:40.149Z,4.9
2018-03-14T00:46:44.426Z,4.89
2018-03-14T00:46:48.595Z,4.9
2018-03-14T00:46:52.651Z,4.9
2018-03-14T00:46:56.823Z,4.9
2018-03-14T00:47:00.861Z,4.9
2018-03-14T00:47:05.212Z,4.9
2018-03-14T00:47:09.402Z,4.89
2018-03-14T00:47:13.478Z,4.89
2018-03-14T00:47:18.589Z,4.89
2018-03-14T00:47:24.805Z,4.9
2018-03-14T00:47:28.992Z,4.89
2018-03-14T00:47:33.406Z,4.89
2018-03-14T00:47:37.530Z,4.89
2018-03-14T00:47:41.836Z,4.89
2018-03-14T00:47:45.909Z,4.89
2018-03-14T00:47:49.982Z,4.89
2018-03-14T00:47:54.278Z,4.89
2018-03-14T00:47:58.447Z,4.89
2018-03-14T00:48:03.030Z,4.89
2018-03-14T00:48:07.205Z,4.89
2018-03-14T00:48:11.545Z,4.88
2018-03-14T00:48:15.721Z,4.88
2018-03-14T00:48:19.776Z,4.88
2018-03-14T00:48:23.961Z,4.88
2018-03-14T00:48:30.640Z,4.89
2018-03-14T00:48:35.294Z,4.88
2018-03-14T00:48:39.354Z,4.87
2018-03-14T00:48:43.690Z,4.88
2018-03-14T00:48:47.890Z,4.88
2018-03-14T00:48:52.171Z,4.87
2018-03-14T00:48:56.458Z,4.89
2018-03-14T00:49:00.765Z,4.87
2018-03-14T00:49:05.264Z,4.88
2018-03-14T00:49:09.423Z,4.88
2018-03-14T00:49:13.522Z,4.88
2018-03-14T00:49:17.817Z,4.88
2018-03-14T00:49:21.848Z,4.87
2018-03-14T00:49:26.176Z,4.87
2018-03-14T00:49:30.242Z,4.87
2018-03-14T00:49:34.429Z,4.86
2018-03-14T00:49:40.836Z,4.87
2018-03-14T00:49:45.408Z,4.86
2018-03-14T00:49:49.252Z,4.86
2018-03-14T00:49:53.672Z,4.86
2018-03-14T00:49:57.893Z,4.86
2018-03-14T00:50:02.244Z,4.86
2018-03-14T00:50:06.468Z,4.86
2018-03-14T00:50:10.762Z,4.86
2018-03-14T00:50:14.896Z,4.86
2018-03-14T00:50:18.823Z,4.86
2018-03-14T00:50:23.175Z,4.86
2018-03-14T00:50:27.333Z,4.86
2018-03-14T00:50:31.557Z,4.85
2018-03-14T00:50:35.733Z,4.85
2018-03-14T00:50:40.164Z,4.85
2018-03-14T00:50:45.366Z,4.85
2018-03-14T00:50:51.338Z,4.84
2018-03-14T00:50:55.551Z,4.84
2018-03-14T00:50:59.712Z,4.84
2018-03-14T00:51:03.730Z,4.83
2018-03-14T00:51:07.803Z,4.84
2018-03-14T00:51:11.993Z,4.84
2018-03-14T00:51:16.324Z,4.84
2018-03-14T00:51:20.627Z,4.83
2018-03-14T00:51:24.796Z,4.84
2018-03-14T00:51:28.863Z,4.83
2018-03-14T00:51:32.780Z,4.84
2018-03-14T00:51:37.083Z,4.83
2018-03-14T00:51:41.416Z,4.83
2018-03-14T00:51:45.835Z,4.84
2018-03-14T00:51:50.006Z,4.83
2018-03-14T00:51:55.790Z,4.84
2018-03-14T00:52:00.986Z,4.83
2018-03-14T00:52:04.904Z,4.82
2018-03-14T00:52:08.959Z,4.83
2018-03-14T00:52:13.302Z,4.84
2018-03-14T00:52:17.233Z,4.83
2018-03-14T00:52:21.486Z,4.83
2018-03-14T00:52:25.650Z,4.83
2018-03-14T00:52:29.823Z,4.83
2018-03-14T00:52:34.254Z,4.83
2018-03-14T00:52:38.306Z,4.82
2018-03-14T00:52:42.365Z,4.81
2018-03-14T00:52:46.545Z,4.82
2018-03-14T00:52:50.768Z,4.82
2018-03-14T00:52:55.077Z,4.82
2018-03-14T00:52:59.384Z,4.82
2018-03-14T00:53:04.082Z,4.81
2018-03-14T00:53:10.001Z,4.82
2018-03-14T00:53:14.170Z,4.81
2018-03-14T00:53:18.490Z,4.82
2018-03-14T00:53:22.778Z,4.82
2018-03-14T00:53:26.832Z,4.82
2018-03-14T00:53:31.131Z,4.82
2018-03-14T00:53:35.047Z,4.81
2018-03-14T00:53:39.255Z,4.82
2018-03-14T00:53:43.736Z,4.82
2018-03-14T00:53:48.049Z,4.81
2018-03-14T00:53:52.411Z,4.82
2018-03-14T00:53:56.591Z,4.82
2018-03-14T00:54:00.403Z,4.82
2018-03-14T00:54:04.525Z,4.81
2018-03-14T00:54:08.695Z,4.81
2018-03-14T00:54:15.908Z,4.82
2018-03-14T00:54:20.756Z,4.82
2018-03-14T00:54:25.045Z,4.82
2018-03-14T00:54:29.236Z,4.81
2018-03-14T00:54:33.185Z,4.82
2018-03-14T00:54:37.365Z,4.81
2018-03-14T00:54:41.796Z,4.81
2018-03-14T00:54:45.976Z,4.81
2018-03-14T00:54:50.136Z,4.81
2018-03-14T00:54:54.437Z,4.81
2018-03-14T00:54:58.538Z,4.81
2018-03-14T00:55:02.826Z,4.81
2018-03-14T00:55:06.998Z,4.81
2018-03-14T00:55:11.186Z,4.81
2018-03-14T00:55:15.518Z,4.81
2018-03-14T00:55:20.729Z,4.81
2018-03-14T00:55:27.096Z,4.81
2018-03-14T00:55:31.141Z,4.81
2018-03-14T00:55:35.064Z,4.81
2018-03-14T00:55:39.414Z,4.81
2018-03-14T00:55:43.797Z,4.81
2018-03-14T00:55:48.139Z,4.82
2018-03-14T00:55:52.417Z,4.82
2018-03-14T00:55:56.472Z,4.82
2018-03-14T00:56:00.666Z,4.82
2018-03-14T00:56:04.973Z,4.81
2018-03-14T00:56:09.032Z,4.82
2018-03-14T00:56:12.946Z,4.82
2018-03-14T00:56:17.126Z,4.82
2018-03-14T00:56:21.207Z,4.82
2018-03-14T00:56:25.243Z,4.81
2018-03-14T00:56:31.174Z,4.81
2018-03-14T00:56:37.193Z,4.82
2018-03-14T00:56:41.533Z,4.82
2018-03-14T00:56:45.730Z,4.82
2018-03-14T00:56:49.890Z,4.82
2018-03-14T00:56:53.944Z,4.82
2018-03-14T00:56:58.374Z,4.83
2018-03-14T00:57:02.546Z,4.83
2018-03-14T00:57:06.613Z,4.82
2018-03-14T00:57:11.027Z,4.83
2018-03-14T00:57:15.355Z,4.83
2018-03-14T00:57:19.676Z,4.83
2018-03-14T00:57:24.196Z,4.83
2018-03-14T00:57:28.481Z,4.83
2018-03-14T00:57:32.811Z,4.84
2018-03-14T00:57:36.865Z,4.84
2018-03-14T00:57:44.551Z,4.84
2018-03-14T00:57:48.713Z,4.84
2018-03-14T00:57:52.870Z,4.85
2018-03-14T00:57:56.805Z,4.84
2018-03-14T00:58:01.125Z,4.84
2018-03-14T00:58:05.739Z,4.85
2018-03-14T00:58:10.055Z,4.84
2018-03-14T00:58:14.367Z,4.85
2018-03-14T00:58:18.169Z,4.84
2018-03-14T00:58:22.208Z,4.84
2018-03-14T00:58:26.654Z,4.85
2018-03-14T00:58:30.948Z,4.85
2018-03-14T00:58:35.130Z,4.85